createdAt,value
2023-04-30T00:00:01.723Z,16.77
2023-04-30T00:02:28.739Z,17.57
2023-04-30T00:04:55.794Z,15.97
2023-04-30T00:07:22.667Z,12.67
2023-04-30T00:09:51.374Z,13.87
2023-04-30T00:12:18.388Z,12.67
2023-04-30T00:14:45.295Z,13.27
2023-04-30T00:17:12.064Z,15.10
2023-04-30T00:19:38.862Z,16.63
2023-04-30T00:22:06.470Z,12.67
2023-04-30T00:24:33.242Z,15.33
2023-04-30T00:27:24.894Z,13.70
2023-04-30T00:29:51.970Z,12.97
2023-04-30T00:32:19.098Z,13.43
2023-04-30T00:34:46.253Z,12.00
2023-04-30T00:37:13.358Z,9.87
2023-04-30T00:39:40.180Z,9.27
2023-04-30T00:42:07.188Z,10.23
2023-04-30T00:44:34.222Z,12.73
2023-04-30T00:47:01.093Z,9.90
2023-04-30T00:49:28.037Z,11.20
2023-04-30T00:51:55.023Z,10.60
2023-04-30T00:54:22.357Z,13.03
2023-04-30T00:56:49.458Z,18.80
2023-04-30T00:59:16.783Z,20.40
2023-04-30T01:01:43.638Z,21.63
2023-04-30T01:04:10.908Z,22.13
2023-04-30T01:06:38.735Z,24.17
2023-04-30T01:09:05.823Z,19.87
2023-04-30T01:12:02.396Z,21.07
2023-04-30T01:14:31.417Z,20.50
2023-04-30T01:17:17.867Z,24.50
2023-04-30T01:19:46.063Z,21.73
2023-04-30T01:22:22.134Z,19.87
2023-04-30T01:25:01.203Z,23.57
2023-04-30T01:27:46.962Z,20.77
2023-04-30T01:30:14.374Z,22.70
2023-04-30T01:32:41.327Z,20.33
2023-04-30T01:35:08.349Z,21.60
2023-04-30T01:37:50.847Z,19.93
2023-04-30T01:40:25.474Z,22.70
2023-04-30T01:43:04.737Z,21.80
2023-04-30T01:45:47.302Z,20.50
2023-04-30T01:48:28.274Z,19.07
2023-04-30T01:51:09.763Z,18.13
2023-04-30T01:53:44.093Z,20.40
2023-04-30T01:56:12.905Z,20.87
2023-04-30T01:58:40.814Z,18.60
2023-04-30T02:01:07.734Z,24.93
2023-04-30T02:03:36.287Z,21.10
2023-04-30T02:06:03.143Z,19.73
2023-04-30T02:08:30.478Z,22.13
2023-04-30T02:10:57.234Z,19.73
2023-04-30T02:13:24.198Z,26.17
2023-04-30T02:15:51.398Z,20.30
2023-04-30T02:18:18.618Z,18.83
2023-04-30T02:20:45.486Z,17.23
2023-04-30T02:23:12.391Z,19.50
2023-04-30T02:25:39.402Z,18.67
2023-04-30T02:28:06.730Z,18.63
2023-04-30T02:30:33.477Z,17.40
2023-04-30T02:33:00.573Z,18.93
2023-04-30T02:35:29.737Z,20.23
2023-04-30T02:37:56.531Z,19.87
2023-04-30T02:40:23.403Z,18.13
2023-04-30T02:42:50.482Z,17.10
2023-04-30T02:45:17.373Z,16.50
2023-04-30T02:47:44.202Z,22.00
2023-04-30T02:50:11.292Z,15.40
2023-04-30T02:52:38.197Z,17.97
2023-04-30T02:55:05.606Z,17.43
2023-04-30T02:57:32.546Z,16.97
2023-04-30T02:59:59.458Z,17.07
2023-04-30T03:02:26.431Z,16.03
2023-04-30T03:04:53.353Z,15.87
2023-04-30T03:07:20.389Z,15.27
2023-04-30T03:09:47.320Z,17.87
2023-04-30T03:12:14.912Z,18.63
2023-04-30T03:14:41.889Z,18.60
2023-04-30T03:17:08.716Z,16.57
2023-04-30T03:19:35.571Z,17.30
2023-04-30T03:22:03.847Z,22.10
2023-04-30T03:24:30.998Z,16.13
2023-04-30T03:26:57.885Z,15.07
2023-04-30T03:29:25.197Z,16.60
2023-04-30T03:31:52.613Z,14.97
2023-04-30T03:34:19.668Z,17.87
2023-04-30T03:36:46.503Z,18.93
2023-04-30T03:39:13.451Z,20.13
2023-04-30T03:41:40.248Z,18.20
2023-04-30T03:44:08.925Z,18.07
2023-04-30T03:46:35.980Z,17.27
2023-04-30T03:49:02.923Z,15.23
2023-04-30T03:51:29.796Z,16.83
2023-04-30T03:53:56.576Z,15.87
2023-04-30T03:56:23.541Z,17.60
2023-04-30T03:58:50.487Z,16.30
2023-04-30T04:01:17.328Z,14.00
2023-04-30T04:03:44.348Z,16.17
2023-04-30T04:06:11.203Z,19.43
2023-04-30T04:08:38.169Z,16.43
2023-04-30T04:11:05.044Z,15.40
2023-04-30T04:13:31.987Z,16.77
2023-04-30T04:15:59.714Z,16.40
2023-04-30T04:18:26.696Z,13.37
2023-04-30T04:20:53.539Z,16.23
2023-04-30T04:23:20.983Z,14.20
2023-04-30T04:25:49.860Z,19.07
2023-04-30T04:28:17.314Z,15.23
2023-04-30T04:30:44.364Z,15.70
2023-04-30T04:33:11.969Z,15.60
2023-04-30T04:35:38.910Z,16.23
2023-04-30T04:38:05.711Z,14.53
2023-04-30T04:40:33.177Z,16.10
2023-04-30T04:43:00.145Z,15.60
2023-04-30T04:45:26.937Z,18.17
2023-04-30T04:47:54.082Z,17.63
2023-04-30T04:50:21.601Z,13.80
2023-04-30T04:52:48.536Z,15.37
2023-04-30T04:55:15.790Z,14.63
2023-04-30T04:57:43.282Z,15.67
2023-04-30T05:00:10.833Z,14.80
2023-04-30T05:02:37.806Z,14.50
2023-04-30T05:05:04.689Z,16.70
2023-04-30T05:07:31.830Z,15.73
2023-04-30T05:09:59.129Z,13.83
2023-04-30T05:12:26.086Z,18.03
2023-04-30T05:14:52.971Z,14.73
2023-04-30T05:17:20.029Z,14.33
2023-04-30T05:19:49.168Z,18.63
2023-04-30T05:22:16.089Z,13.60
2023-04-30T05:24:43.003Z,13.27
2023-04-30T05:27:09.925Z,14.87
2023-04-30T05:29:36.771Z,16.17
2023-04-30T05:32:03.759Z,13.00
2023-04-30T05:34:30.945Z,22.90
2023-04-30T05:36:57.840Z,18.00
2023-04-30T05:39:24.818Z,13.60
2023-04-30T05:41:53.390Z,15.73
2023-04-30T05:44:20.481Z,13.17
2023-04-30T05:46:47.306Z,14.93
2023-04-30T05:49:14.213Z,15.00
2023-04-30T05:51:41.039Z,14.20
2023-04-30T05:54:07.829Z,11.53
2023-04-30T05:56:34.830Z,15.40
2023-04-30T05:59:01.606Z,14.43
2023-04-30T06:01:29.499Z,12.33
2023-04-30T06:03:56.378Z,10.73
2023-04-30T06:06:23.294Z,11.90
2023-04-30T06:08:50.223Z,13.50
2023-04-30T06:11:17.183Z,10.83
2023-04-30T06:13:44.091Z,12.87
2023-04-30T06:16:10.994Z,16.70
2023-04-30T06:18:37.820Z,14.70
2023-04-30T06:21:04.792Z,12.23
2023-04-30T06:23:31.686Z,11.30
2023-04-30T06:25:58.609Z,11.37
2023-04-30T06:28:25.810Z,14.53
2023-04-30T06:30:54.320Z,14.70
2023-04-30T06:33:21.586Z,12.03
2023-04-30T06:35:48.641Z,14.13
2023-04-30T06:38:15.605Z,17.70
2023-04-30T06:40:42.476Z,9.43
2023-04-30T06:43:09.369Z,9.40
2023-04-30T06:45:36.255Z,10.97
2023-04-30T06:48:03.223Z,9.93
2023-04-30T06:50:30.069Z,12.47
2023-04-30T06:52:57.015Z,10.03
2023-04-30T06:55:24.489Z,9.87
2023-04-30T06:57:51.316Z,11.80
2023-04-30T07:00:18.809Z,9.30
2023-04-30T07:02:48.048Z,14.77
2023-04-30T07:05:15.060Z,14.33
2023-04-30T07:07:41.864Z,13.00
2023-04-30T07:10:08.884Z,9.23
2023-04-30T07:12:35.751Z,10.60
2023-04-30T07:15:03.613Z,11.23
2023-04-30T07:17:30.541Z,9.57
2023-04-30T07:19:57.513Z,8.50
2023-04-30T07:22:24.511Z,9.60
2023-04-30T07:24:51.390Z,8.23
2023-04-30T07:27:18.171Z,10.93
2023-04-30T07:29:45.029Z,14.77
2023-04-30T07:32:11.815Z,11.17
2023-04-30T07:34:39.271Z,9.50
2023-04-30T07:37:06.252Z,9.87
2023-04-30T07:39:33.096Z,14.67
2023-04-30T07:42:00.055Z,6.73
2023-04-30T07:44:26.927Z,6.57
2023-04-30T07:46:53.707Z,12.37
2023-04-30T07:49:20.801Z,11.20
2023-04-30T07:51:47.684Z,8.63
2023-04-30T07:54:14.644Z,9.87
2023-04-30T07:56:42.163Z,10.37
2023-04-30T07:59:09.231Z,9.07
2023-04-30T08:01:36.198Z,11.83
2023-04-30T08:04:03.284Z,11.33
2023-04-30T08:06:30.237Z,7.70
2023-04-30T08:08:57.175Z,8.87
2023-04-30T08:11:23.998Z,8.50
2023-04-30T08:13:50.844Z,10.17
2023-04-30T08:16:17.731Z,9.27
2023-04-30T08:18:46.480Z,11.10
2023-04-30T08:21:13.889Z,10.33
2023-04-30T08:23:40.696Z,9.13
2023-04-30T08:26:07.741Z,9.27
2023-04-30T08:28:34.586Z,7.33
2023-04-30T08:31:01.480Z,9.70
2023-04-30T08:33:28.343Z,9.90
2023-04-30T08:35:55.220Z,7.83
2023-04-30T08:38:22.038Z,7.70
2023-04-30T08:40:53.532Z,13.00
2023-04-30T08:43:20.643Z,7.30
2023-04-30T08:45:47.604Z,8.60
2023-04-30T08:48:17.896Z,9.30
2023-04-30T08:50:44.755Z,8.07
2023-04-30T08:53:12.906Z,6.97
2023-04-30T08:55:40.297Z,6.70
2023-04-30T08:58:08.852Z,6.47
2023-04-30T09:00:36.112Z,9.23
2023-04-30T09:03:03.046Z,8.20
2023-04-30T09:05:30.151Z,7.87
2023-04-30T09:10:28.472Z,10.17
2023-04-30T09:12:59.470Z,7.93
2023-04-30T09:15:26.357Z,8.83
2023-04-30T09:18:12.842Z,5.93
2023-04-30T09:20:54.034Z,8.90
2023-04-30T09:23:20.926Z,6.80
2023-04-30T09:25:47.687Z,6.20
2023-04-30T09:28:14.505Z,10.77
2023-04-30T09:30:41.746Z,6.27
2023-04-30T09:33:11.632Z,11.50
2023-04-30T09:35:40.484Z,8.90
2023-04-30T09:38:07.472Z,7.43
2023-04-30T09:40:38.526Z,6.33
2023-04-30T09:43:05.429Z,6.00
2023-04-30T09:45:41.692Z,9.57
2023-04-30T09:48:17.585Z,4.47
2023-04-30T09:50:47.805Z,13.73
2023-04-30T09:53:15.419Z,14.90
2023-04-30T09:55:46.546Z,9.83
2023-04-30T09:58:13.745Z,6.90
2023-04-30T10:00:42.294Z,10.13
2023-04-30T10:03:12.684Z,6.47
2023-04-30T10:05:41.498Z,7.07
2023-04-30T10:08:13.959Z,9.23
2023-04-30T10:10:42.983Z,5.13
2023-04-30T10:13:11.796Z,5.63
2023-04-30T10:15:40.145Z,8.37
2023-04-30T10:18:14.370Z,10.87
2023-04-30T10:20:41.319Z,6.60
2023-04-30T10:23:08.807Z,7.20
2023-04-30T10:25:35.872Z,4.87
2023-04-30T10:28:04.683Z,9.67
2023-04-30T10:30:32.134Z,7.17
2023-04-30T10:33:06.296Z,5.60
2023-04-30T10:35:35.387Z,7.97
2023-04-30T10:38:18.755Z,5.60
2023-04-30T10:40:47.180Z,7.23
2023-04-30T10:43:14.471Z,8.03
2023-04-30T10:45:44.432Z,10.80
2023-04-30T10:48:11.391Z,9.50
2023-04-30T10:50:46.302Z,8.40
2023-04-30T10:53:18.035Z,8.00
2023-04-30T10:55:49.501Z,6.27
2023-04-30T10:58:45.816Z,6.80
2023-04-30T11:01:13.843Z,6.57
2023-04-30T11:03:42.540Z,6.73
2023-04-30T11:06:11.916Z,7.77
2023-04-30T11:08:40.106Z,7.00
2023-04-30T11:11:09.124Z,4.43
2023-04-30T11:13:44.311Z,5.67
2023-04-30T11:16:11.655Z,6.47
2023-04-30T11:18:42.520Z,9.23
2023-04-30T11:21:09.952Z,6.57
2023-04-30T11:23:40.319Z,6.67
2023-04-30T11:26:09.499Z,6.33
2023-04-30T11:28:37.996Z,6.17
2023-04-30T11:31:05.711Z,6.37
2023-04-30T11:33:33.538Z,8.90
2023-04-30T11:36:01.375Z,9.10
2023-04-30T11:38:28.305Z,8.87
2023-04-30T11:40:55.217Z,8.13
2023-04-30T11:43:23.072Z,4.97
2023-04-30T11:46:00.366Z,9.10
2023-04-30T11:48:37.558Z,8.97
2023-04-30T11:51:05.860Z,11.73
2023-04-30T11:53:33.170Z,7.83
2023-04-30T11:56:02.836Z,7.23
2023-04-30T11:58:33.724Z,7.47
2023-04-30T12:01:01.210Z,8.47
2023-04-30T12:03:28.411Z,6.63
2023-04-30T12:05:55.269Z,7.70
2023-04-30T12:08:22.193Z,8.00
2023-04-30T12:10:49.045Z,7.27
2023-04-30T12:13:18.808Z,8.47
2023-04-30T12:15:57.843Z,7.77
2023-04-30T12:18:24.930Z,10.77
2023-04-30T12:20:52.167Z,6.83
2023-04-30T12:23:19.610Z,7.10
2023-04-30T12:25:47.847Z,7.60
2023-04-30T12:28:14.750Z,8.73
2023-04-30T12:30:42.664Z,7.30
2023-04-30T12:33:10.920Z,8.50
2023-04-30T12:35:42.296Z,10.40
2023-04-30T12:38:09.862Z,8.40
2023-04-30T12:40:37.270Z,6.93
2023-04-30T12:43:05.376Z,12.70
2023-04-30T12:45:49.143Z,5.90
2023-04-30T12:48:16.448Z,7.17
2023-04-30T12:50:47.451Z,6.83
2023-04-30T12:53:14.518Z,4.97
2023-04-30T12:55:42.732Z,5.77
2023-04-30T12:58:10.573Z,9.30
2023-04-30T13:00:44.492Z,4.27
2023-04-30T13:03:15.151Z,6.93
2023-04-30T13:05:42.363Z,4.73
2023-04-30T13:08:10.027Z,4.77
2023-04-30T13:10:36.859Z,5.80
2023-04-30T13:13:03.649Z,6.47
2023-04-30T13:15:30.720Z,7.87
2023-04-30T13:17:57.932Z,10.40
2023-04-30T13:20:25.830Z,5.13
2023-04-30T13:22:52.737Z,6.07
2023-04-30T13:25:20.003Z,4.83
2023-04-30T13:27:46.851Z,5.13
2023-04-30T13:30:14.745Z,5.07
2023-04-30T13:32:42.733Z,4.60
2023-04-30T13:35:09.893Z,6.00
2023-04-30T13:37:36.796Z,5.53
2023-04-30T13:40:04.253Z,5.07
2023-04-30T13:42:31.236Z,4.40
2023-04-30T13:44:58.296Z,6.20
2023-04-30T13:47:25.147Z,5.30
2023-04-30T13:49:52.131Z,7.43
2023-04-30T13:52:19.004Z,4.90
2023-04-30T13:54:45.897Z,8.30
2023-04-30T13:57:12.874Z,7.73
2023-04-30T13:59:39.783Z,3.63
2023-04-30T14:02:07.228Z,5.47
2023-04-30T14:04:34.090Z,4.83
2023-04-30T14:07:01.657Z,8.10
2023-04-30T14:09:29.298Z,5.50
2023-04-30T14:11:59.298Z,6.37
2023-04-30T14:14:27.028Z,7.07
2023-04-30T14:16:53.939Z,3.23
2023-04-30T14:19:22.790Z,6.73
2023-04-30T14:21:49.594Z,5.43
2023-04-30T14:24:16.550Z,9.40
2023-04-30T14:26:43.463Z,5.47
2023-04-30T14:29:10.438Z,5.83
2023-04-30T14:31:37.458Z,6.53
2023-04-30T14:34:04.339Z,4.73
2023-04-30T14:36:31.643Z,2.50
2023-04-30T14:38:58.690Z,9.10
2023-04-30T14:41:25.918Z,7.30
2023-04-30T14:43:52.946Z,7.37
2023-04-30T14:46:20.043Z,5.90
2023-04-30T14:48:46.904Z,5.37
2023-04-30T14:51:13.835Z,9.43
2023-04-30T14:53:40.700Z,5.17
2023-04-30T14:56:07.626Z,10.73
2023-04-30T14:58:34.446Z,4.93
2023-04-30T15:01:01.554Z,8.40
2023-04-30T15:03:28.658Z,7.10
2023-04-30T15:05:56.170Z,4.40
2023-04-30T15:08:23.213Z,8.37
2023-04-30T15:10:50.101Z,8.20
2023-04-30T15:13:16.969Z,11.20
2023-04-30T15:15:44.015Z,4.23
2023-04-30T15:18:10.935Z,7.23
2023-04-30T15:20:37.781Z,6.77
2023-04-30T15:23:04.795Z,5.87
2023-04-30T15:25:32.324Z,7.90
2023-04-30T15:27:59.074Z,5.67
2023-04-30T15:30:26.031Z,5.13
2023-04-30T15:32:52.894Z,4.97
2023-04-30T15:35:19.848Z,5.20
2023-04-30T15:37:46.717Z,6.83
2023-04-30T15:40:15.734Z,4.43
2023-04-30T15:42:42.842Z,5.60
2023-04-30T15:45:10.620Z,7.23
2023-04-30T15:47:41.417Z,5.47
2023-04-30T15:50:08.587Z,7.10
2023-04-30T15:52:36.164Z,5.37
2023-04-30T15:55:04.555Z,4.50
2023-04-30T15:57:31.400Z,5.43
2023-04-30T15:59:58.411Z,4.10
2023-04-30T16:02:25.516Z,9.67
2023-04-30T16:04:52.424Z,6.47
2023-04-30T16:07:19.196Z,3.87
2023-04-30T16:09:49.184Z,6.50
2023-04-30T16:12:18.645Z,6.57
2023-04-30T16:14:45.593Z,9.33
2023-04-30T16:17:12.655Z,12.57
2023-04-30T16:19:39.519Z,14.80
2023-04-30T16:22:06.293Z,5.03
2023-04-30T16:24:33.383Z,7.93
2023-04-30T16:27:00.174Z,8.10
2023-04-30T16:29:27.187Z,36.03
2023-04-30T16:31:54.257Z,17.77
2023-04-30T16:34:21.082Z,9.87
2023-04-30T16:36:48.005Z,6.27
2023-04-30T16:39:17.050Z,6.23
2023-04-30T16:41:44.154Z,5.33
2023-04-30T16:44:11.515Z,7.07
2023-04-30T16:46:38.517Z,4.93
2023-04-30T16:49:05.469Z,5.90
2023-04-30T16:51:32.528Z,5.53
2023-04-30T16:53:59.392Z,5.23
2023-04-30T16:56:26.358Z,6.27
2023-04-30T16:58:53.244Z,5.80
2023-04-30T17:01:20.149Z,5.30
2023-04-30T17:03:47.120Z,4.17
2023-04-30T17:06:14.545Z,5.80
2023-04-30T17:08:41.995Z,6.50
2023-04-30T17:11:09.108Z,6.17
2023-04-30T17:13:37.710Z,4.07
2023-04-30T17:16:04.788Z,6.17
2023-04-30T17:18:32.218Z,8.93
2023-04-30T17:20:59.122Z,5.80
2023-04-30T17:23:26.026Z,18.50
2023-04-30T17:25:53.174Z,15.67
2023-04-30T17:28:20.081Z,10.17
2023-04-30T17:30:47.534Z,7.93
2023-04-30T17:33:14.500Z,9.80
2023-04-30T17:35:41.332Z,9.40
2023-04-30T17:38:08.303Z,5.90
2023-04-30T17:40:35.216Z,6.97
2023-04-30T17:43:02.084Z,8.17
2023-04-30T17:45:29.035Z,13.13
2023-04-30T17:47:55.946Z,10.73
2023-04-30T17:50:23.894Z,9.57
2023-04-30T17:52:50.750Z,9.40
2023-04-30T17:55:18.110Z,10.47
2023-04-30T17:57:44.995Z,14.80
2023-04-30T18:00:12.164Z,23.60
2023-04-30T18:02:42.082Z,27.60
2023-04-30T18:05:10.563Z,28.20
2023-04-30T18:07:37.530Z,24.57
2023-04-30T18:10:04.559Z,12.00
2023-04-30T18:12:31.403Z,9.67
2023-04-30T18:14:59.185Z,7.43
2023-04-30T18:17:26.249Z,9.07
2023-04-30T18:19:53.469Z,7.10
2023-04-30T18:22:20.384Z,10.70
2023-04-30T18:24:47.344Z,7.60
2023-04-30T18:27:14.225Z,11.63
2023-04-30T18:29:42.446Z,10.87
2023-04-30T18:32:09.519Z,7.80
2023-04-30T18:34:37.293Z,7.23
2023-04-30T18:37:04.130Z,7.07
2023-04-30T18:39:31.857Z,13.23
2023-04-30T18:41:58.621Z,6.77
2023-04-30T18:44:35.101Z,7.70
2023-04-30T18:47:01.918Z,8.67
2023-04-30T18:49:28.769Z,7.33
2023-04-30T18:51:56.688Z,7.97
2023-04-30T18:54:23.987Z,6.37
2023-04-30T18:56:50.796Z,12.13
2023-04-30T18:59:18.033Z,11.67
2023-04-30T19:01:45.946Z,7.97
2023-04-30T19:04:15.974Z,10.77
2023-04-30T19:06:43.571Z,10.13
2023-04-30T19:09:10.582Z,8.80
2023-04-30T19:11:37.528Z,8.63
2023-04-30T19:14:05.257Z,11.30
2023-04-30T19:16:32.225Z,9.43
2023-04-30T19:18:59.046Z,9.37
2023-04-30T19:21:27.018Z,8.73
2023-04-30T19:23:53.974Z,9.40
2023-04-30T19:26:22.450Z,7.73
2023-04-30T19:28:49.566Z,7.73
2023-04-30T19:31:16.600Z,10.27
2023-04-30T19:33:43.630Z,9.93
2023-04-30T19:36:10.737Z,9.77
2023-04-30T19:38:37.503Z,9.73
2023-04-30T19:41:04.415Z,10.77
2023-04-30T19:43:31.815Z,5.70
2023-04-30T19:45:59.121Z,6.23
2023-04-30T19:48:26.977Z,7.73
2023-04-30T19:50:53.981Z,7.10
2023-04-30T19:53:25.817Z,6.60
2023-04-30T19:55:53.351Z,8.60
2023-04-30T19:58:20.403Z,5.70
2023-04-30T20:00:47.303Z,55.67
2023-04-30T20:03:15.016Z,49.53
2023-04-30T20:05:42.997Z,44.07
2023-04-30T20:08:10.067Z,57.17
2023-04-30T20:10:38.318Z,38.97
2023-04-30T20:13:06.288Z,30.50
2023-04-30T20:15:33.493Z,17.23
2023-04-30T20:18:05.857Z,17.07
2023-04-30T20:20:32.963Z,29.50
2023-04-30T20:23:10.293Z,29.20
2023-04-30T20:25:37.340Z,20.50
2023-04-30T20:28:04.340Z,12.10
2023-04-30T20:30:31.558Z,8.80
2023-04-30T20:32:58.908Z,11.33
2023-04-30T20:35:25.756Z,6.57
2023-04-30T20:37:55.915Z,8.47
2023-04-30T20:40:23.163Z,10.57
2023-04-30T20:42:51.759Z,11.07
2023-04-30T20:45:19.739Z,8.43
2023-04-30T20:47:46.928Z,6.97
2023-04-30T20:50:15.391Z,7.03
2023-04-30T20:52:43.321Z,5.90
2023-04-30T20:55:10.858Z,9.37
2023-04-30T20:57:37.813Z,8.53
2023-04-30T21:00:05.364Z,11.63
2023-04-30T21:02:32.267Z,8.53
2023-04-30T21:05:04.530Z,7.47
2023-04-30T21:07:32.978Z,9.30
2023-04-30T21:10:00.611Z,8.83
2023-04-30T21:12:28.373Z,9.67
2023-04-30T21:14:56.244Z,17.23
2023-04-30T21:17:23.118Z,7.00
2023-04-30T21:19:50.205Z,13.20
2023-04-30T21:22:17.066Z,5.70
2023-04-30T21:24:44.256Z,9.13
2023-04-30T21:27:11.616Z,6.77
2023-04-30T21:29:41.826Z,8.90
2023-04-30T21:32:08.679Z,7.03
2023-04-30T21:34:35.543Z,6.93
2023-04-30T21:37:02.499Z,15.17
2023-04-30T21:39:32.782Z,13.47
2023-04-30T21:42:00.289Z,10.83
2023-04-30T21:44:27.317Z,9.03
2023-04-30T21:46:54.311Z,9.23
2023-04-30T21:49:21.199Z,7.97
2023-04-30T21:51:47.970Z,6.87
2023-04-30T21:54:14.905Z,9.27
2023-04-30T21:56:41.772Z,9.77
2023-04-30T21:59:08.541Z,7.43
2023-04-30T22:01:35.582Z,9.17
2023-04-30T22:04:04.785Z,12.17
2023-04-30T22:06:35.231Z,9.77
2023-04-30T22:09:02.166Z,9.47
2023-04-30T22:11:29.351Z,12.10
2023-04-30T22:13:56.245Z,13.23
2023-04-30T22:16:23.213Z,13.37
2023-04-30T22:18:50.263Z,14.13
2023-04-30T22:21:17.114Z,9.37
2023-04-30T22:23:43.944Z,7.93
2023-04-30T22:26:11.561Z,9.70
2023-04-30T22:28:38.485Z,16.07
2023-04-30T22:31:05.657Z,12.90
2023-04-30T22:33:36.651Z,10.57
2023-04-30T22:36:04.901Z,10.03
2023-04-30T22:38:32.072Z,10.03
2023-04-30T22:41:00.352Z,15.50
2023-04-30T22:43:29.390Z,14.97
2023-04-30T22:45:57.858Z,13.63
2023-04-30T22:48:25.109Z,12.70
2023-04-30T22:50:52.835Z,11.30
2023-04-30T22:53:19.744Z,15.40
2023-04-30T22:55:46.634Z,9.17
2023-04-30T22:58:13.532Z,9.73
2023-04-30T23:00:41.199Z,12.03
2023-04-30T23:03:08.252Z,10.23
2023-04-30T23:05:35.197Z,8.70
2023-04-30T23:08:02.113Z,12.20
2023-04-30T23:10:28.972Z,14.00
2023-04-30T23:12:56.736Z,10.83
2023-04-30T23:15:23.520Z,14.30
2023-04-30T23:17:51.708Z,14.23
2023-04-30T23:20:18.963Z,14.00
2023-04-30T23:22:46.168Z,16.13
2023-04-30T23:25:13.001Z,9.20
2023-04-30T23:27:39.898Z,10.67
2023-04-30T23:30:07.151Z,11.00
2023-04-30T23:32:34.246Z,9.90
2023-04-30T23:35:01.008Z,14.53
2023-04-30T23:37:28.321Z,9.97
2023-04-30T23:39:55.470Z,14.73
2023-04-30T23:42:22.382Z,14.10
2023-04-30T23:44:49.261Z,13.30
2023-04-30T23:47:16.054Z,11.47
2023-04-30T23:49:45.818Z,13.13
2023-04-30T23:52:14.524Z,12.87
2023-04-30T23:54:41.402Z,15.47
2023-04-30T23:57:08.360Z,11.93
2023-04-30T23:59:35.190Z,13.63
